createdAt,value
2023-10-31T00:02:36.585Z,1.00
2023-10-31T00:06:39.327Z,1.10
2023-10-31T00:10:46.143Z,1.30
2023-10-31T00:14:49.002Z,1.20
2023-10-31T00:18:51.921Z,1.40
2023-10-31T00:22:54.752Z,1.25
2023-10-31T00:26:58.964Z,1.83
2023-10-31T00:31:01.992Z,1.35
2023-10-31T00:35:05.264Z,1.33
2023-10-31T00:39:07.963Z,1.40
2023-10-31T00:43:12.181Z,1.60
2023-10-31T00:47:15.851Z,1.58
2023-10-31T00:51:18.651Z,1.40
2023-10-31T00:55:21.437Z,1.52
2023-10-31T00:59:26.268Z,1.25
2023-10-31T01:03:29.914Z,1.20
2023-10-31T01:15:39.264Z,1.33
2023-10-31T01:19:42.155Z,1.25
2023-10-31T01:23:45.053Z,1.50
2023-10-31T01:27:47.771Z,1.42
2023-10-31T01:31:59.369Z,1.40
2023-10-31T01:36:04.523Z,1.50
2023-10-31T01:40:08.730Z,0.95
2023-10-31T01:44:11.951Z,1.77
2023-10-31T01:48:16.372Z,1.60
2023-10-31T01:52:19.113Z,1.25
2023-10-31T01:56:22.974Z,1.60
2023-10-31T02:00:25.919Z,1.58
2023-10-31T02:04:30.054Z,1.30
2023-10-31T02:08:33.244Z,1.25
2023-10-31T02:12:36.852Z,1.30
2023-10-31T02:16:39.827Z,1.30
2023-10-31T02:20:44.013Z,1.23
2023-10-31T02:24:48.117Z,1.42
2023-10-31T02:28:50.981Z,1.40
2023-10-31T02:32:53.953Z,1.35
2023-10-31T02:36:56.834Z,1.48
2023-10-31T02:41:01.861Z,1.30
2023-10-31T02:45:05.083Z,1.30
2023-10-31T02:49:07.858Z,1.70
2023-10-31T02:53:11.262Z,1.50
2023-10-31T02:57:15.814Z,1.60
2023-10-31T03:01:19.100Z,1.48
2023-10-31T03:05:22.182Z,1.40
2023-10-31T03:09:25.062Z,1.50
2023-10-31T03:13:29.242Z,1.30
2023-10-31T03:17:32.061Z,1.23
2023-10-31T03:21:34.822Z,1.20
2023-10-31T03:25:37.734Z,1.25
2023-10-31T03:29:41.941Z,1.30
2023-10-31T03:33:45.193Z,1.00
2023-10-31T03:37:48.045Z,1.10
2023-10-31T03:41:50.976Z,1.02
2023-10-31T03:45:55.179Z,1.30
2023-10-31T03:49:58.320Z,0.82
2023-10-31T03:54:01.114Z,0.82
2023-10-31T03:58:04.472Z,1.10
2023-10-31T04:02:08.902Z,1.00
2023-10-31T04:06:11.663Z,0.93
2023-10-31T04:10:14.616Z,0.90
2023-10-31T04:14:17.557Z,1.00
2023-10-31T04:18:21.918Z,1.42
2023-10-31T04:22:24.870Z,1.00
2023-10-31T04:26:27.605Z,1.08
2023-10-31T04:30:30.430Z,1.10
2023-10-31T04:34:34.600Z,1.30
2023-10-31T04:38:38.745Z,1.50
2023-10-31T04:42:41.913Z,1.60
2023-10-31T04:46:45.155Z,1.95
2023-10-31T04:50:49.387Z,1.20
2023-10-31T04:54:52.176Z,1.52
2023-10-31T04:58:54.953Z,1.30
2023-10-31T05:02:59.231Z,1.50
2023-10-31T05:07:03.671Z,1.45
2023-10-31T05:11:06.812Z,1.70
2023-10-31T05:15:10.524Z,1.88
2023-10-31T05:19:13.551Z,1.50
2023-10-31T05:23:17.672Z,2.25
2023-10-31T05:27:20.422Z,1.80
2023-10-31T05:31:23.390Z,1.40
2023-10-31T05:35:26.433Z,2.00
2023-10-31T05:39:30.700Z,1.83
2023-10-31T05:43:34.923Z,1.73
2023-10-31T05:47:37.768Z,1.77
2023-10-31T05:51:40.641Z,1.95
2023-10-31T05:55:44.821Z,1.98
2023-10-31T05:59:47.765Z,1.70
2023-10-31T06:03:50.686Z,1.70
2023-10-31T06:07:54.210Z,1.98
2023-10-31T06:11:58.315Z,1.77
2023-10-31T06:16:02.806Z,1.95
2023-10-31T06:20:07.271Z,1.77
2023-10-31T06:24:10.904Z,1.95
2023-10-31T06:28:15.511Z,2.22
2023-10-31T06:32:18.346Z,1.60
2023-10-31T06:36:21.308Z,1.95
2023-10-31T06:40:24.138Z,1.50
2023-10-31T06:44:28.450Z,2.10
2023-10-31T06:48:31.315Z,1.40
2023-10-31T06:52:34.017Z,1.60
2023-10-31T06:56:36.743Z,1.58
2023-10-31T07:00:40.963Z,1.80
2023-10-31T07:04:44.084Z,1.52
2023-10-31T07:08:47.221Z,1.70
2023-10-31T07:12:49.949Z,1.63
2023-10-31T07:16:54.102Z,1.92
2023-10-31T07:20:56.905Z,2.00
2023-10-31T07:25:00.900Z,2.03
2023-10-31T07:29:03.739Z,1.50
2023-10-31T07:33:08.912Z,1.40
2023-10-31T07:37:11.850Z,1.50
2023-10-31T07:41:14.747Z,1.30
2023-10-31T07:45:17.627Z,1.73
2023-10-31T07:49:22.134Z,1.70
2023-10-31T07:53:25.136Z,1.45
2023-10-31T07:57:28.085Z,1.75
2023-10-31T08:01:30.940Z,1.58
2023-10-31T08:05:35.224Z,1.50
2023-10-31T08:09:37.950Z,1.80
2023-10-31T08:13:41.105Z,1.65
2023-10-31T08:17:43.827Z,2.13
2023-10-31T08:21:48.321Z,2.00
2023-10-31T08:25:51.797Z,1.73
2023-10-31T08:29:54.604Z,1.52
2023-10-31T08:33:57.420Z,2.00
2023-10-31T08:38:01.739Z,1.90
2023-10-31T08:42:04.959Z,1.70
2023-10-31T08:46:08.350Z,1.50
2023-10-31T08:50:12.411Z,1.38
2023-10-31T08:54:16.640Z,1.42
2023-10-31T08:58:19.631Z,1.50
2023-10-31T09:02:22.487Z,1.42
2023-10-31T09:06:25.523Z,1.60
2023-10-31T09:10:30.408Z,1.30
2023-10-31T09:14:33.217Z,1.90
2023-10-31T09:18:36.832Z,1.63
2023-10-31T09:22:39.761Z,1.50
2023-10-31T09:26:45.647Z,1.30
2023-10-31T09:30:48.674Z,1.60
2023-10-31T09:34:51.572Z,1.60
2023-10-31T09:38:54.277Z,1.30
2023-10-31T09:42:58.852Z,1.48
2023-10-31T09:47:01.785Z,2.35
2023-10-31T09:51:04.880Z,1.50
2023-10-31T09:55:08.857Z,1.80
2023-10-31T09:59:13.044Z,1.48
2023-10-31T10:03:16.058Z,1.25
2023-10-31T10:07:20.365Z,1.67
2023-10-31T10:11:24.243Z,1.10
2023-10-31T10:15:29.082Z,1.20
2023-10-31T10:19:31.961Z,1.30
2023-10-31T10:23:36.687Z,1.20
2023-10-31T10:27:40.328Z,1.30
2023-10-31T10:31:45.980Z,0.90
2023-10-31T10:35:49.074Z,1.02
2023-10-31T10:39:56.501Z,1.25
2023-10-31T10:44:06.621Z,0.95
2023-10-31T10:48:14.111Z,1.17
2023-10-31T10:52:21.248Z,1.40
2023-10-31T10:56:27.768Z,1.13
2023-10-31T11:00:30.717Z,1.00
2023-10-31T11:04:36.280Z,0.90
2023-10-31T11:08:39.331Z,1.10
2023-10-31T11:12:44.421Z,0.77
2023-10-31T11:16:51.800Z,1.00
2023-10-31T11:20:59.947Z,1.00
2023-10-31T11:25:02.818Z,1.10
2023-10-31T11:29:07.027Z,1.20
2023-10-31T11:33:13.911Z,1.13
2023-10-31T11:37:25.817Z,0.80
2023-10-31T11:41:28.827Z,0.93
2023-10-31T11:45:35.518Z,0.95
2023-10-31T11:49:48.654Z,0.85
2023-10-31T11:53:53.346Z,0.90
2023-10-31T11:57:56.305Z,0.93
2023-10-31T12:02:00.015Z,0.82
2023-10-31T12:06:02.898Z,0.70
2023-10-31T12:10:08.477Z,0.60
2023-10-31T12:14:11.329Z,0.60
2023-10-31T12:18:14.162Z,0.90
2023-10-31T12:22:17.377Z,0.60
2023-10-31T12:26:25.016Z,0.57
2023-10-31T12:30:28.003Z,0.70
2023-10-31T12:34:30.808Z,1.10
2023-10-31T12:38:33.977Z,0.93
2023-10-31T12:42:38.959Z,0.75
2023-10-31T12:46:43.244Z,0.52
2023-10-31T12:50:46.257Z,0.50
2023-10-31T12:54:49.067Z,0.43
2023-10-31T12:59:00.618Z,0.75
2023-10-31T13:03:05.658Z,0.60
2023-10-31T13:07:09.956Z,0.75
2023-10-31T13:11:12.834Z,0.68
2023-10-31T13:15:17.713Z,0.65
2023-10-31T13:19:20.528Z,0.63
2023-10-31T13:23:23.319Z,0.55
2023-10-31T13:27:26.193Z,0.60
2023-10-31T13:31:30.597Z,0.90
2023-10-31T13:35:34.018Z,0.80
2023-10-31T13:43:39.581Z,0.82
2023-10-31T13:47:43.820Z,0.90
2023-10-31T13:51:48.934Z,0.68
2023-10-31T13:55:51.863Z,0.63
2023-10-31T13:59:55.009Z,0.80
2023-10-31T14:03:59.446Z,0.80
2023-10-31T14:08:02.503Z,0.80
2023-10-31T14:12:06.156Z,1.13
2023-10-31T14:16:09.702Z,1.10
2023-10-31T14:20:15.223Z,0.63
2023-10-31T14:24:18.089Z,0.82
2023-10-31T14:28:20.863Z,1.00
2023-10-31T14:32:23.713Z,0.80
2023-10-31T14:36:28.015Z,0.82
2023-10-31T14:40:31.184Z,0.63
2023-10-31T14:44:34.227Z,0.60
2023-10-31T14:48:37.019Z,1.20
2023-10-31T14:52:42.585Z,0.90
2023-10-31T14:56:45.434Z,0.90
2023-10-31T15:00:48.383Z,1.08
2023-10-31T15:04:51.326Z,0.90
2023-10-31T15:08:55.657Z,0.77
2023-10-31T15:12:58.816Z,0.93
2023-10-31T15:17:02.195Z,0.93
2023-10-31T15:21:05.547Z,1.10
2023-10-31T15:25:11.068Z,1.73
2023-10-31T15:29:13.917Z,1.60
2023-10-31T15:33:16.722Z,1.42
2023-10-31T15:37:20.466Z,1.52
2023-10-31T15:41:25.664Z,1.40
2023-10-31T15:45:28.524Z,1.67
2023-10-31T15:49:31.254Z,1.48
2023-10-31T15:53:35.443Z,1.20
2023-10-31T15:57:39.706Z,1.23
2023-10-31T16:01:43.572Z,1.42
2023-10-31T16:05:46.830Z,1.20
2023-10-31T16:09:49.862Z,1.30
2023-10-31T16:13:54.171Z,1.20
2023-10-31T16:17:57.116Z,1.48
2023-10-31T16:22:00.052Z,1.60
2023-10-31T16:26:03.024Z,1.23
2023-10-31T16:30:09.935Z,1.08
2023-10-31T16:34:12.913Z,1.13
2023-10-31T16:38:16.479Z,1.17
2023-10-31T16:42:19.503Z,1.30
2023-10-31T16:46:23.667Z,1.15
2023-10-31T16:50:30.596Z,1.30
2023-10-31T16:54:33.448Z,1.23
2023-10-31T16:58:36.253Z,1.60
2023-10-31T17:02:44.939Z,1.98
2023-10-31T17:06:47.708Z,1.88
2023-10-31T17:10:50.602Z,2.35
2023-10-31T17:14:54.092Z,1.90
2023-10-31T17:18:58.209Z,1.48
2023-10-31T17:23:01.243Z,1.30
2023-10-31T17:27:04.435Z,1.58
2023-10-31T17:31:08.217Z,1.33
2023-10-31T17:35:12.582Z,1.40
2023-10-31T17:39:15.951Z,1.50
2023-10-31T17:43:19.385Z,2.08
2023-10-31T17:47:22.163Z,2.17
2023-10-31T17:51:26.350Z,2.38
2023-10-31T17:55:29.568Z,2.42
2023-10-31T17:59:32.619Z,1.67
2023-10-31T18:03:35.866Z,1.65
2023-10-31T18:07:40.802Z,1.60
2023-10-31T18:11:44.496Z,1.40
2023-10-31T18:15:47.253Z,1.67
2023-10-31T18:19:49.965Z,1.75
2023-10-31T18:23:55.112Z,2.20
2023-10-31T18:27:57.844Z,1.77
2023-10-31T18:32:00.933Z,1.77
2023-10-31T18:36:03.798Z,1.70
2023-10-31T18:40:10.728Z,1.90
2023-10-31T18:44:26.302Z,1.90
2023-10-31T18:48:39.942Z,1.73
2023-10-31T18:52:42.821Z,2.20
2023-10-31T18:56:46.956Z,2.00
2023-10-31T19:00:49.731Z,1.73
2023-10-31T19:04:52.452Z,2.58
2023-10-31T19:08:55.266Z,2.28
2023-10-31T19:12:59.412Z,2.45
2023-10-31T19:17:02.309Z,2.95
2023-10-31T19:21:05.541Z,2.08
2023-10-31T19:25:09.025Z,1.90
2023-10-31T19:29:13.677Z,2.40
2023-10-31T19:33:16.666Z,1.83
2023-10-31T19:37:19.549Z,1.92
2023-10-31T19:41:23.744Z,1.83
2023-10-31T19:45:28.129Z,2.00
2023-10-31T19:49:31.149Z,1.65
2023-10-31T19:53:33.990Z,1.90
2023-10-31T19:57:37.641Z,2.00
2023-10-31T20:05:44.708Z,1.80
2023-10-31T20:09:47.854Z,2.17
2023-10-31T20:13:51.233Z,2.58
2023-10-31T20:17:55.774Z,2.40
2023-10-31T20:21:58.628Z,3.20
2023-10-31T20:26:01.429Z,3.15
2023-10-31T20:30:05.332Z,3.83
2023-10-31T20:34:09.479Z,3.50
2023-10-31T20:38:12.471Z,3.58
2023-10-31T20:42:15.891Z,2.67
2023-10-31T20:46:18.758Z,2.80
2023-10-31T20:50:24.032Z,2.45
2023-10-31T20:54:27.714Z,2.40
2023-10-31T20:58:30.598Z,2.63
2023-10-31T21:02:33.446Z,2.10
2023-10-31T21:06:39.114Z,1.90
2023-10-31T21:10:41.896Z,2.22
2023-10-31T21:14:44.851Z,2.50
2023-10-31T21:18:47.837Z,2.30
2023-10-31T21:22:54.008Z,2.97
2023-10-31T21:26:57.312Z,2.30
2023-10-31T21:31:00.122Z,2.22
2023-10-31T21:35:04.756Z,2.67
2023-10-31T21:39:09.107Z,2.45
2023-10-31T21:43:11.886Z,2.38
2023-10-31T21:47:14.901Z,2.92
2023-10-31T21:51:17.886Z,2.08
2023-10-31T21:55:22.224Z,2.15
2023-10-31T21:59:25.218Z,2.20
2023-10-31T22:03:28.477Z,2.65
2023-10-31T22:07:31.507Z,2.10
2023-10-31T22:11:35.844Z,1.80
2023-10-31T22:15:38.644Z,1.70
2023-10-31T22:19:41.688Z,1.92
2023-10-31T22:23:44.360Z,2.28
2023-10-31T22:27:48.828Z,1.98
2023-10-31T22:31:51.702Z,1.98
2023-10-31T22:35:54.665Z,1.90
2023-10-31T22:39:57.405Z,1.75
2023-10-31T22:44:01.510Z,2.28
2023-10-31T22:48:04.404Z,2.60
2023-10-31T22:52:07.424Z,2.47
2023-10-31T22:56:10.540Z,1.88
2023-10-31T23:00:22.378Z,1.90
2023-10-31T23:04:25.540Z,2.13
2023-10-31T23:08:28.605Z,2.22
2023-10-31T23:12:31.796Z,3.08
2023-10-31T23:16:36.012Z,2.20
2023-10-31T23:20:39.646Z,2.17
2023-10-31T23:28:45.147Z,2.30
2023-10-31T23:32:49.616Z,2.38
2023-10-31T23:36:52.580Z,2.40
2023-10-31T23:40:55.357Z,1.83
2023-10-31T23:44:58.180Z,2.30
2023-10-31T23:49:02.270Z,2.20
2023-10-31T23:53:05.008Z,1.90
2023-10-31T23:57:07.877Z,2.10
